createdAt,value
2023-07-05T00:00:38.034Z,16.80
2023-07-05T00:03:05.061Z,16.70
2023-07-05T00:05:31.876Z,16.80
2023-07-05T00:07:58.899Z,16.70
2023-07-05T00:10:25.569Z,16.70
2023-07-05T00:12:52.353Z,16.70
2023-07-05T00:15:19.214Z,16.70
2023-07-05T00:17:45.949Z,16.70
2023-07-05T00:20:13.224Z,16.70
2023-07-05T00:22:40.322Z,16.60
2023-07-05T00:25:07.820Z,16.60
2023-07-05T00:27:34.526Z,16.60
2023-07-05T00:30:02.130Z,16.50
2023-07-05T00:32:29.058Z,16.50
2023-07-05T00:34:56.277Z,16.50
2023-07-05T00:37:22.978Z,16.50
2023-07-05T00:39:49.630Z,16.50
2023-07-05T00:42:16.690Z,16.50
2023-07-05T00:45:13.276Z,16.50
2023-07-05T00:47:43.295Z,16.60
2023-07-05T00:50:24.586Z,16.60
2023-07-05T00:52:54.037Z,16.60
2023-07-05T00:55:21.339Z,16.60
2023-07-05T00:57:48.249Z,16.60
2023-07-05T01:00:18.249Z,16.60
2023-07-05T01:02:50.136Z,16.60
2023-07-05T01:05:18.719Z,16.60
2023-07-05T01:07:46.811Z,16.60
2023-07-05T01:10:25.217Z,16.60
2023-07-05T01:13:12.504Z,16.60
2023-07-05T01:15:52.467Z,16.60
2023-07-05T01:18:38.458Z,16.60
2023-07-05T01:21:29.961Z,16.70
2023-07-05T01:24:13.166Z,16.60
2023-07-05T01:27:00.905Z,16.50
2023-07-05T01:29:39.710Z,16.50
2023-07-05T01:32:20.089Z,16.50
2023-07-05T01:34:55.601Z,16.50
2023-07-05T01:37:36.768Z,16.60
2023-07-05T01:40:14.502Z,16.60
2023-07-05T01:42:42.560Z,16.60
2023-07-05T01:45:10.372Z,16.60
2023-07-05T01:47:56.050Z,16.70
2023-07-05T01:50:35.873Z,16.60
2023-07-05T01:53:21.652Z,16.40
2023-07-05T01:56:10.073Z,16.30
2023-07-05T01:58:43.098Z,16.20
2023-07-05T02:01:12.240Z,16.10
2023-07-05T02:03:39.826Z,16.10
2023-07-05T02:06:08.703Z,16.00
2023-07-05T02:08:40.824Z,15.90
2023-07-05T02:11:07.570Z,15.90
2023-07-05T02:13:35.216Z,15.80
2023-07-05T02:16:02.103Z,15.80
2023-07-05T02:18:30.472Z,15.80
2023-07-05T02:20:58.340Z,15.90
2023-07-05T02:23:25.190Z,15.80
2023-07-05T02:25:52.731Z,15.90
2023-07-05T02:28:19.631Z,15.90
2023-07-05T02:30:46.331Z,16.00
2023-07-05T02:33:13.998Z,16.00
2023-07-05T02:35:41.067Z,16.00
2023-07-05T02:38:08.074Z,16.10
2023-07-05T02:40:34.840Z,16.10
2023-07-05T02:43:01.670Z,16.10
2023-07-05T02:45:29.361Z,16.10
2023-07-05T02:47:56.192Z,16.20
2023-07-05T02:50:24.217Z,16.10
2023-07-05T02:52:50.975Z,16.10
2023-07-05T02:55:19.257Z,16.10
2023-07-05T02:57:45.906Z,16.10
2023-07-05T03:00:13.067Z,16.00
2023-07-05T03:02:41.756Z,16.00
2023-07-05T03:05:13.309Z,16.00
2023-07-05T03:07:40.084Z,15.90
2023-07-05T03:10:08.540Z,16.00
2023-07-05T03:12:35.593Z,16.00
2023-07-05T03:15:02.987Z,16.00
2023-07-05T03:17:29.767Z,16.00
2023-07-05T03:19:58.272Z,16.00
2023-07-05T03:22:25.079Z,16.00
2023-07-05T03:24:52.754Z,16.10
2023-07-05T03:27:19.929Z,16.10
2023-07-05T03:29:46.908Z,16.10
2023-07-05T03:32:15.464Z,16.00
2023-07-05T03:34:42.157Z,15.90
2023-07-05T03:37:08.902Z,15.80
2023-07-05T03:39:35.713Z,15.70
2023-07-05T03:42:03.723Z,15.60
2023-07-05T03:44:30.477Z,15.50
2023-07-05T03:46:57.221Z,15.40
2023-07-05T03:49:23.920Z,15.40
2023-07-05T03:51:50.810Z,15.40
2023-07-05T03:54:17.721Z,15.40
2023-07-05T03:56:44.562Z,15.30
2023-07-05T03:59:11.688Z,15.30
2023-07-05T04:01:38.414Z,15.30
2023-07-05T04:04:05.271Z,15.40
2023-07-05T04:06:34.083Z,15.40
2023-07-05T04:09:01.182Z,15.30
2023-07-05T04:11:27.954Z,15.40
2023-07-05T04:13:56.750Z,15.40
2023-07-05T04:16:26.065Z,15.40
2023-07-05T04:18:55.886Z,15.50
2023-07-05T04:21:22.964Z,15.50
2023-07-05T04:23:50.013Z,15.50
2023-07-05T04:26:23.176Z,15.40
2023-07-05T04:28:50.368Z,15.40
2023-07-05T04:31:31.113Z,15.40
2023-07-05T04:33:59.567Z,15.40
2023-07-05T04:36:28.693Z,15.30
2023-07-05T04:38:58.124Z,15.20
2023-07-05T04:41:25.498Z,15.10
2023-07-05T04:43:55.015Z,15.00
2023-07-05T04:46:23.132Z,14.80
2023-07-05T04:48:49.986Z,14.80
2023-07-05T04:51:16.661Z,14.80
2023-07-05T04:53:43.418Z,14.80
2023-07-05T04:56:15.505Z,14.80
2023-07-05T04:58:43.243Z,14.80
2023-07-05T05:01:11.977Z,14.80
2023-07-05T05:03:39.011Z,14.80
2023-07-05T05:06:05.916Z,14.90
2023-07-05T05:08:32.662Z,14.80
2023-07-05T05:11:02.010Z,14.80
2023-07-05T05:13:30.620Z,14.80
2023-07-05T05:15:57.625Z,14.90
2023-07-05T05:18:25.882Z,14.80
2023-07-05T05:20:52.904Z,14.80
2023-07-05T05:23:19.829Z,14.80
2023-07-05T05:25:47.844Z,14.80
2023-07-05T05:28:15.808Z,14.80
2023-07-05T05:30:45.206Z,14.80
2023-07-05T05:33:14.467Z,14.80
2023-07-05T05:35:47.124Z,14.80
2023-07-05T05:38:14.032Z,14.80
2023-07-05T05:40:40.822Z,14.80
2023-07-05T05:43:07.642Z,14.80
2023-07-05T05:45:35.173Z,14.80
2023-07-05T05:48:02.013Z,14.80
2023-07-05T05:50:28.868Z,14.80
2023-07-05T05:52:55.539Z,14.80
2023-07-05T05:55:22.173Z,14.90
2023-07-05T05:57:48.857Z,14.90
2023-07-05T06:00:15.711Z,14.90
2023-07-05T06:02:42.594Z,15.00
2023-07-05T06:05:10.624Z,15.00
2023-07-05T06:07:37.487Z,15.10
2023-07-05T06:10:04.366Z,15.00
2023-07-05T06:12:31.124Z,15.00
2023-07-05T06:14:58.330Z,15.00
2023-07-05T06:17:25.049Z,15.00
2023-07-05T06:19:51.690Z,15.00
2023-07-05T06:22:18.318Z,15.10
2023-07-05T06:24:45.232Z,15.20
2023-07-05T06:27:12.487Z,15.20
2023-07-05T06:29:39.436Z,15.20
2023-07-05T06:32:06.511Z,15.10
2023-07-05T06:34:33.275Z,15.10
2023-07-05T06:37:00.629Z,15.00
2023-07-05T06:39:27.368Z,14.80
2023-07-05T06:41:54.060Z,14.70
2023-07-05T06:44:20.748Z,14.70
2023-07-05T06:46:47.505Z,14.50
2023-07-05T06:49:14.300Z,14.60
2023-07-05T06:51:41.037Z,14.70
2023-07-05T06:54:07.760Z,14.90
2023-07-05T06:56:36.287Z,15.10
2023-07-05T06:59:03.062Z,15.30
2023-07-05T07:01:30.061Z,15.70
2023-07-05T07:03:57.100Z,15.90
2023-07-05T07:06:24.239Z,16.00
2023-07-05T07:08:50.956Z,16.00
2023-07-05T07:11:17.753Z,15.90
2023-07-05T07:13:44.447Z,16.00
2023-07-05T07:16:14.148Z,15.90
2023-07-05T07:18:45.922Z,15.90
2023-07-05T07:21:13.328Z,16.00
2023-07-05T07:23:40.650Z,15.80
2023-07-05T07:26:10.556Z,15.60
2023-07-05T07:28:37.433Z,15.30
2023-07-05T07:31:25.856Z,15.10
2023-07-05T07:33:53.709Z,14.90
2023-07-05T07:36:25.795Z,14.80
2023-07-05T07:38:53.242Z,14.70
2023-07-05T07:41:21.226Z,14.60
2023-07-05T07:43:51.437Z,14.60
2023-07-05T07:46:20.929Z,14.50
2023-07-05T07:48:49.969Z,14.50
2023-07-05T07:51:35.934Z,14.50
2023-07-05T07:54:05.893Z,14.50
2023-07-05T07:56:33.210Z,14.50
2023-07-05T07:59:02.181Z,14.50
2023-07-05T08:01:33.120Z,14.80
2023-07-05T08:04:03.041Z,15.20
2023-07-05T08:06:42.017Z,15.40
2023-07-05T08:09:12.874Z,15.30
2023-07-05T08:11:42.983Z,15.30
2023-07-05T08:14:10.563Z,15.60
2023-07-05T08:16:38.043Z,15.90
2023-07-05T08:19:04.754Z,15.90
2023-07-05T08:21:31.813Z,15.90
2023-07-05T08:24:03.734Z,15.90
2023-07-05T08:26:37.079Z,15.80
2023-07-05T08:29:04.254Z,15.80
2023-07-05T08:31:31.662Z,16.00
2023-07-05T08:33:58.628Z,16.30
2023-07-05T08:36:33.448Z,16.60
2023-07-05T08:39:04.179Z,16.80
2023-07-05T08:41:43.118Z,16.80
2023-07-05T08:44:32.841Z,17.10
2023-07-05T08:47:08.819Z,17.20
2023-07-05T08:49:41.111Z,17.10
2023-07-05T08:52:22.736Z,17.00
2023-07-05T08:54:54.563Z,17.20
2023-07-05T08:57:33.637Z,17.40
2023-07-05T09:00:12.227Z,17.30
2023-07-05T09:02:39.803Z,17.60
2023-07-05T09:05:17.369Z,17.50
2023-07-05T09:07:45.049Z,17.00
2023-07-05T09:10:26.888Z,16.60
2023-07-05T09:13:12.616Z,16.20
2023-07-05T09:16:22.671Z,16.00
2023-07-05T09:19:06.431Z,15.90
2023-07-05T09:21:40.866Z,15.80
2023-07-05T09:24:27.826Z,15.70
2023-07-05T09:26:58.949Z,15.70
2023-07-05T09:29:42.764Z,15.50
2023-07-05T09:32:14.351Z,15.40
2023-07-05T09:34:47.673Z,15.40
2023-07-05T09:37:20.986Z,15.60
2023-07-05T09:40:12.956Z,15.70
2023-07-05T09:42:52.892Z,15.60
2023-07-05T09:45:20.176Z,15.70
2023-07-05T09:47:49.172Z,16.00
2023-07-05T09:50:21.549Z,16.10
2023-07-05T09:53:01.150Z,16.30
2023-07-05T09:55:29.427Z,16.40
2023-07-05T09:57:58.651Z,16.40
2023-07-05T10:00:25.347Z,16.30
2023-07-05T10:02:56.631Z,16.30
2023-07-05T10:05:29.747Z,16.20
2023-07-05T10:08:00.689Z,16.30
2023-07-05T10:10:33.762Z,16.30
2023-07-05T10:13:12.170Z,16.30
2023-07-05T10:15:50.826Z,16.30
2023-07-05T10:18:27.845Z,16.20
2023-07-05T10:20:58.573Z,16.20
2023-07-05T10:23:26.437Z,16.20
2023-07-05T10:26:01.972Z,16.20
2023-07-05T10:28:30.712Z,16.20
2023-07-05T10:31:05.636Z,16.10
2023-07-05T10:33:33.527Z,15.80
2023-07-05T10:36:00.452Z,15.70
2023-07-05T10:38:41.555Z,15.60
2023-07-05T10:41:20.316Z,15.60
2023-07-05T10:44:07.922Z,15.80
2023-07-05T10:46:39.118Z,15.90
2023-07-05T10:49:11.482Z,16.00
2023-07-05T10:51:41.979Z,16.10
2023-07-05T10:54:46.575Z,16.40
2023-07-05T10:57:40.790Z,16.80
2023-07-05T11:00:31.402Z,16.90
2023-07-05T11:03:11.297Z,17.00
2023-07-05T11:05:51.292Z,17.00
2023-07-05T11:08:24.653Z,17.20
2023-07-05T11:10:53.289Z,17.30
2023-07-05T11:13:21.861Z,17.40
2023-07-05T11:15:49.741Z,17.30
2023-07-05T11:18:22.081Z,17.20
2023-07-05T11:20:52.136Z,17.20
2023-07-05T11:23:44.458Z,17.20
2023-07-05T11:26:12.447Z,17.30
2023-07-05T11:28:40.571Z,17.10
2023-07-05T11:31:31.270Z,17.00
2023-07-05T11:34:23.567Z,17.00
2023-07-05T11:37:04.854Z,17.00
2023-07-05T11:39:49.302Z,16.90
2023-07-05T11:42:16.118Z,17.00
2023-07-05T11:44:46.873Z,16.90
2023-07-05T11:47:25.912Z,16.90
2023-07-05T11:50:10.931Z,16.80
2023-07-05T11:52:45.138Z,16.80
2023-07-05T11:55:22.605Z,16.80
2023-07-05T11:58:05.613Z,16.70
2023-07-05T12:00:36.917Z,16.70
2023-07-05T12:03:16.811Z,16.60
2023-07-05T12:05:44.730Z,16.60
2023-07-05T12:08:17.020Z,16.60
2023-07-05T12:11:00.124Z,16.80
2023-07-05T12:13:31.657Z,16.90
2023-07-05T12:15:59.709Z,16.90
2023-07-05T12:18:28.699Z,16.90
2023-07-05T12:20:56.650Z,16.90
2023-07-05T12:23:25.380Z,17.10
2023-07-05T12:25:54.498Z,17.40
2023-07-05T12:28:32.588Z,17.70
2023-07-05T12:31:10.004Z,17.90
2023-07-05T12:33:37.811Z,17.70
2023-07-05T12:36:10.137Z,17.80
2023-07-05T12:38:39.205Z,17.90
2023-07-05T12:41:08.402Z,18.20
2023-07-05T12:43:35.587Z,18.20
2023-07-05T12:46:23.890Z,18.10
2023-07-05T12:48:50.986Z,18.00
2023-07-05T12:51:21.386Z,17.80
2023-07-05T12:53:53.228Z,17.80
2023-07-05T12:56:29.960Z,17.90
2023-07-05T12:59:00.115Z,18.10
2023-07-05T13:01:36.365Z,18.30
2023-07-05T13:04:11.462Z,18.10
2023-07-05T13:06:38.834Z,18.20
2023-07-05T13:09:07.727Z,18.60
2023-07-05T13:11:34.908Z,18.70
2023-07-05T13:14:03.322Z,18.60
2023-07-05T13:16:48.544Z,18.50
2023-07-05T13:19:15.278Z,18.40
2023-07-05T13:21:46.728Z,18.30
2023-07-05T13:24:28.720Z,18.40
2023-07-05T13:26:57.542Z,19.00
2023-07-05T13:29:31.803Z,19.20
2023-07-05T13:31:59.834Z,19.10
2023-07-05T13:34:27.324Z,19.00
2023-07-05T13:37:00.749Z,18.90
2023-07-05T13:39:29.084Z,18.90
2023-07-05T13:41:59.314Z,19.10
2023-07-05T13:44:26.320Z,19.20
2023-07-05T13:46:53.072Z,19.00
2023-07-05T13:49:19.944Z,19.00
2023-07-05T13:51:50.944Z,19.00
2023-07-05T13:54:19.187Z,19.10
2023-07-05T13:56:46.007Z,19.10
2023-07-05T13:59:17.834Z,19.30
2023-07-05T14:01:46.831Z,19.20
2023-07-05T14:04:14.297Z,19.20
2023-07-05T14:06:41.828Z,19.40
2023-07-05T14:09:09.426Z,19.60
2023-07-05T14:11:42.312Z,19.40
2023-07-05T14:14:13.948Z,19.30
2023-07-05T14:16:42.012Z,19.20
2023-07-05T14:19:09.077Z,19.00
2023-07-05T14:21:38.780Z,18.80
2023-07-05T14:24:09.752Z,18.70
2023-07-05T14:26:37.447Z,18.60
2023-07-05T14:29:05.490Z,18.60
2023-07-05T14:31:32.790Z,18.60
2023-07-05T14:33:59.805Z,18.50
2023-07-05T14:36:28.461Z,18.90
2023-07-05T14:38:55.445Z,19.10
2023-07-05T14:41:27.144Z,19.00
2023-07-05T14:43:55.264Z,19.30
2023-07-05T14:46:22.607Z,19.50
2023-07-05T14:48:49.580Z,19.80
2023-07-05T14:51:19.055Z,19.70
2023-07-05T14:53:46.890Z,19.50
2023-07-05T14:56:13.910Z,19.10
2023-07-05T14:58:41.058Z,18.90
2023-07-05T15:01:15.318Z,18.70
2023-07-05T15:03:47.060Z,18.60
2023-07-05T15:06:14.395Z,18.50
2023-07-05T15:08:41.143Z,18.30
2023-07-05T15:11:13.686Z,18.20
2023-07-05T15:13:43.844Z,18.10
2023-07-05T15:16:14.425Z,17.90
2023-07-05T15:18:41.182Z,17.50
2023-07-05T15:21:17.618Z,17.30
2023-07-05T15:23:45.277Z,17.20
2023-07-05T15:26:11.972Z,17.20
2023-07-05T15:28:39.691Z,17.50
2023-07-05T15:31:06.817Z,18.00
2023-07-05T15:33:34.715Z,18.40
2023-07-05T15:36:01.731Z,18.40
2023-07-05T15:38:28.629Z,18.20
2023-07-05T15:40:55.629Z,18.10
2023-07-05T15:43:22.932Z,18.10
2023-07-05T15:45:49.969Z,18.00
2023-07-05T15:48:16.827Z,18.00
2023-07-05T15:50:43.709Z,18.20
2023-07-05T15:53:11.070Z,18.20
2023-07-05T15:55:38.611Z,18.30
2023-07-05T15:58:06.649Z,18.30
2023-07-05T16:00:38.235Z,18.30
2023-07-05T16:03:08.907Z,18.10
2023-07-05T16:05:38.690Z,18.00
2023-07-05T16:08:07.529Z,18.10
2023-07-05T16:10:36.428Z,18.00
2023-07-05T16:13:03.338Z,17.80
2023-07-05T16:15:32.538Z,17.70
2023-07-05T16:17:59.995Z,17.70
2023-07-05T16:20:27.800Z,17.70
2023-07-05T16:22:55.552Z,17.70
2023-07-05T16:25:24.420Z,17.70
2023-07-05T16:27:51.759Z,17.70
2023-07-05T16:30:18.679Z,17.70
2023-07-05T16:32:46.439Z,17.60
2023-07-05T16:35:13.208Z,17.60
2023-07-05T16:37:39.882Z,17.50
2023-07-05T16:40:07.676Z,17.40
2023-07-05T16:42:34.674Z,17.30
2023-07-05T16:45:01.619Z,17.30
2023-07-05T16:47:28.422Z,17.20
2023-07-05T16:49:55.350Z,17.30
2023-07-05T16:52:22.071Z,17.30
2023-07-05T16:54:48.786Z,17.30
2023-07-05T16:57:15.680Z,17.40
2023-07-05T16:59:42.678Z,17.50
2023-07-05T17:02:10.201Z,17.50
2023-07-05T17:04:37.283Z,17.50
2023-07-05T17:07:04.139Z,17.50
2023-07-05T17:09:30.986Z,17.60
2023-07-05T17:11:57.693Z,17.50
2023-07-05T17:14:24.408Z,17.60
2023-07-05T17:16:51.173Z,17.60
2023-07-05T17:19:18.038Z,17.50
2023-07-05T17:21:45.042Z,17.40
2023-07-05T17:24:11.874Z,17.40
2023-07-05T17:26:39.172Z,17.40
2023-07-05T17:29:06.159Z,17.40
2023-07-05T17:31:33.109Z,17.30
2023-07-05T17:33:59.927Z,17.30
2023-07-05T17:36:28.608Z,17.20
2023-07-05T17:38:57.338Z,17.20
2023-07-05T17:41:26.082Z,17.20
2023-07-05T17:43:53.227Z,17.10
2023-07-05T17:46:29.574Z,17.00
2023-07-05T17:48:58.757Z,17.10
2023-07-05T17:51:26.955Z,17.00
2023-07-05T17:53:53.996Z,16.70
2023-07-05T17:56:22.495Z,16.50
2023-07-05T17:58:50.173Z,16.40
2023-07-05T18:01:20.218Z,16.40
2023-07-05T18:03:48.815Z,16.40
2023-07-05T18:06:16.128Z,16.40
2023-07-05T18:08:44.602Z,16.50
2023-07-05T18:11:12.615Z,16.50
2023-07-05T18:13:41.117Z,16.60
2023-07-05T18:16:11.985Z,16.60
2023-07-05T18:18:38.961Z,16.60
2023-07-05T18:21:07.840Z,16.50
2023-07-05T18:23:37.441Z,16.40
2023-07-05T18:26:07.490Z,16.40
2023-07-05T18:28:34.990Z,16.30
2023-07-05T18:31:03.222Z,16.20
2023-07-05T18:33:34.262Z,16.20
2023-07-05T18:36:01.928Z,16.10
2023-07-05T18:38:30.432Z,15.90
2023-07-05T18:40:58.734Z,15.70
2023-07-05T18:43:25.698Z,15.60
2023-07-05T18:45:54.938Z,15.50
2023-07-05T18:48:23.234Z,15.50
2023-07-05T18:50:52.002Z,15.60
2023-07-05T18:53:20.661Z,15.70
2023-07-05T18:55:54.946Z,15.60
2023-07-05T18:58:22.070Z,15.60
2023-07-05T19:01:01.605Z,15.70
2023-07-05T19:03:29.457Z,15.60
2023-07-05T19:06:09.756Z,15.30
2023-07-05T19:08:38.080Z,15.00
2023-07-05T19:11:10.217Z,14.80
2023-07-05T19:13:38.089Z,14.70
2023-07-05T19:16:05.125Z,14.60
2023-07-05T19:18:33.887Z,14.50
2023-07-05T19:21:01.604Z,14.40
2023-07-05T19:23:29.676Z,14.40
2023-07-05T19:25:58.671Z,14.30
2023-07-05T19:28:27.303Z,14.00
2023-07-05T19:30:56.910Z,13.70
2023-07-05T19:33:24.103Z,13.50
2023-07-05T19:35:51.799Z,13.30
2023-07-05T19:38:19.158Z,13.10
2023-07-05T19:40:50.636Z,13.00
2023-07-05T19:43:18.083Z,13.00
2023-07-05T19:45:44.862Z,13.00
2023-07-05T19:48:11.498Z,13.00
2023-07-05T19:50:38.569Z,13.00
2023-07-05T19:53:05.676Z,13.10
2023-07-05T19:55:33.931Z,13.10
2023-07-05T19:58:02.159Z,13.20
2023-07-05T20:00:33.911Z,13.20
2023-07-05T20:03:04.893Z,13.10
2023-07-05T20:05:35.481Z,13.10
2023-07-05T20:08:04.558Z,13.20
2023-07-05T20:10:32.824Z,13.20
2023-07-05T20:12:59.586Z,13.30
2023-07-05T20:15:30.798Z,13.30
2023-07-05T20:18:01.323Z,13.30
2023-07-05T20:20:30.047Z,13.30
2023-07-05T20:22:56.772Z,13.30
2023-07-05T20:25:23.966Z,13.30
2023-07-05T20:27:52.522Z,13.20
2023-07-05T20:30:20.889Z,13.20
2023-07-05T20:32:48.704Z,13.20
2023-07-05T20:35:16.320Z,13.30
2023-07-05T20:37:50.634Z,13.20
2023-07-05T20:40:30.070Z,13.10
2023-07-05T20:42:56.949Z,12.90
2023-07-05T20:45:25.389Z,12.80
2023-07-05T20:47:52.397Z,12.70
2023-07-05T20:50:19.291Z,12.60
2023-07-05T20:52:45.957Z,12.50
2023-07-05T20:55:15.322Z,12.40
2023-07-05T20:57:42.038Z,12.30
2023-07-05T21:00:10.246Z,12.20
2023-07-05T21:02:37.546Z,12.20
2023-07-05T21:05:04.622Z,12.20
2023-07-05T21:07:31.674Z,12.20
2023-07-05T21:09:58.440Z,12.10
2023-07-05T21:12:26.266Z,12.10
2023-07-05T21:14:53.045Z,12.00
2023-07-05T21:17:19.850Z,12.00
2023-07-05T21:19:46.594Z,11.90
2023-07-05T21:22:13.394Z,11.90
2023-07-05T21:24:40.227Z,11.90
2023-07-05T21:27:07.004Z,11.90
2023-07-05T21:29:33.702Z,11.90
2023-07-05T21:32:00.903Z,11.90
2023-07-05T21:34:27.564Z,11.90
2023-07-05T21:36:54.374Z,12.00
2023-07-05T21:39:21.109Z,12.10
2023-07-05T21:41:49.241Z,12.10
2023-07-05T21:44:16.821Z,12.10
2023-07-05T21:46:47.099Z,12.20
2023-07-05T21:49:13.929Z,12.20
2023-07-05T21:51:45.380Z,12.30
2023-07-05T21:54:12.589Z,12.30
2023-07-05T21:56:42.703Z,12.30
2023-07-05T21:59:10.810Z,12.30
2023-07-05T22:01:38.673Z,12.40
2023-07-05T22:04:06.488Z,12.30
2023-07-05T22:06:33.355Z,12.40
2023-07-05T22:09:01.356Z,12.40
2023-07-05T22:11:28.648Z,12.50
2023-07-05T22:13:58.245Z,12.50
2023-07-05T22:16:27.759Z,12.50
2023-07-05T22:18:56.232Z,12.60
2023-07-05T22:21:24.548Z,12.70
2023-07-05T22:23:51.896Z,12.70
2023-07-05T22:26:19.151Z,12.80
2023-07-05T22:28:46.001Z,12.80
2023-07-05T22:31:13.273Z,12.80
2023-07-05T22:33:39.962Z,12.80
2023-07-05T22:36:07.136Z,12.80
2023-07-05T22:38:34.438Z,12.80
2023-07-05T22:41:01.209Z,12.80
2023-07-05T22:43:32.238Z,12.80
2023-07-05T22:46:02.289Z,12.90
2023-07-05T22:48:31.216Z,12.90
2023-07-05T22:50:58.487Z,13.00
2023-07-05T22:53:25.192Z,13.00
2023-07-05T22:55:55.459Z,13.00
2023-07-05T22:58:25.836Z,13.10
2023-07-05T23:01:02.219Z,13.10
2023-07-05T23:03:33.196Z,13.10
2023-07-05T23:06:02.503Z,13.10
2023-07-05T23:08:30.138Z,13.30
2023-07-05T23:11:03.611Z,13.20
2023-07-05T23:13:32.580Z,13.20
2023-07-05T23:15:59.674Z,13.30
2023-07-05T23:18:27.134Z,13.20
2023-07-05T23:20:54.181Z,13.20
2023-07-05T23:23:21.541Z,13.10
2023-07-05T23:25:48.376Z,13.10
2023-07-05T23:28:15.088Z,13.10
2023-07-05T23:30:42.119Z,13.10
2023-07-05T23:33:10.285Z,13.10
2023-07-05T23:35:37.688Z,13.10
2023-07-05T23:38:04.425Z,13.10
2023-07-05T23:40:31.087Z,13.10
2023-07-05T23:43:02.632Z,13.10
2023-07-05T23:45:29.378Z,13.10
2023-07-05T23:47:57.693Z,13.10
2023-07-05T23:50:24.666Z,13.00
2023-07-05T23:52:52.071Z,12.90
2023-07-05T23:55:19.298Z,12.90
2023-07-05T23:57:49.315Z,13.00
